sensor_id;sensor_type;location;lat;lon;timestamp;pressure;altitude;pressure_sealevel;temperature;humidity
44255;BME280;29933;47.226;15.734;2022-10-31T00:00:30;96788.59;;;12.35;100.00
44255;BME280;29933;47.226;15.734;2022-10-31T00:02:56;96783.50;;;12.44;100.00
44255;BME280;29933;47.226;15.734;2022-10-31T00:05:22;96790.13;;;12.50;100.00
44255;BME280;29933;47.226;15.734;2022-10-31T00:07:52;96783.16;;;12.49;100.00
44255;BME280;29933;47.226;15.734;2022-10-31T00:10:17;96782.34;;;12.45;100.00
44255;BME280;29933;47.226;15.734;2022-10-31T00:12:43;96784.31;;;12.48;100.00
44255;BME280;29933;47.226;15.734;2022-10-31T00:15:09;96780.03;;;12.47;100.00
44255;BME280;29933;47.226;15.734;2022-10-31T00:17:35;96782.75;;;12.47;100.00
44255;BME280;29933;47.226;15.734;2022-10-31T00:20:02;96781.59;;;12.48;100.00
44255;BME280;29933;47.226;15.734;2022-10-31T00:22:27;96771.47;;;12.48;100.00
44255;BME280;29933;47.226;15.734;2022-10-31T00:24:53;96776.13;;;12.44;100.00
44255;BME280;29933;47.226;15.734;2022-10-31T00:27:19;96777.69;;;12.38;100.00
44255;BME280;29933;47.226;15.734;2022-10-31T00:29:45;96772.63;;;12.33;100.00
44255;BME280;29933;47.226;15.734;2022-10-31T00:32:10;96775.72;;;12.35;100.00
44255;BME280;29933;47.226;15.734;2022-10-31T00:34:36;96771.84;;;12.32;100.00
44255;BME280;29933;47.226;15.734;2022-10-31T00:37:02;96777.66;;;12.27;100.00
44255;BME280;29933;47.226;15.734;2022-10-31T00:39:27;96778.47;;;12.24;100.00
44255;BME280;29933;47.226;15.734;2022-10-31T00:41:53;96773.00;;;12.21;100.00
44255;BME280;29933;47.226;15.734;2022-10-31T00:44:19;96774.56;;;12.22;100.00
44255;BME280;29933;47.226;15.734;2022-10-31T00:46:45;96778.06;;;12.29;100.00
44255;BME280;29933;47.226;15.734;2022-10-31T00:49:10;96774.19;;;12.34;100.00
44255;BME280;29933;47.226;15.734;2022-10-31T00:51:37;96769.91;;;12.26;100.00
44255;BME280;29933;47.226;15.734;2022-10-31T00:54:03;96770.25;;;12.10;100.00
44255;BME280;29933;47.226;15.734;2022-10-31T00:56:29;96768.72;;;12.02;100.00
44255;BME280;29933;47.226;15.734;2022-10-31T00:58:55;96762.09;;;12.10;100.00
44255;BME280;29933;47.226;15.734;2022-10-31T01:01:20;96771.44;;;12.23;100.00
44255;BME280;29933;47.226;15.734;2022-10-31T01:03:46;96769.13;;;12.25;100.00
44255;BME280;29933;47.226;15.734;2022-10-31T01:06:12;96767.56;;;12.24;100.00
44255;BME280;29933;47.226;15.734;2022-10-31T01:08:39;96765.22;;;12.26;100.00
44255;BME280;29933;47.226;15.734;2022-10-31T01:13:34;96762.13;;;12.39;100.00
44255;BME280;29933;47.226;15.734;2022-10-31T01:16:01;96762.91;;;12.43;100.00
44255;BME280;29933;47.226;15.734;2022-10-31T01:18:27;96759.00;;;12.47;100.00
44255;BME280;29933;47.226;15.734;2022-10-31T01:21:06;96756.69;;;12.53;100.00
44255;BME280;29933;47.226;15.734;2022-10-31T01:23:33;96750.06;;;12.54;100.00
44255;BME280;29933;47.226;15.734;2022-10-31T01:26:01;96745.78;;;12.53;100.00
44255;BME280;29933;47.226;15.734;2022-10-31T01:28:26;96743.44;;;12.55;100.00
44255;BME280;29933;47.226;15.734;2022-10-31T01:30:52;96737.59;;;12.53;100.00
44255;BME280;29933;47.226;15.734;2022-10-31T01:33:18;96739.16;;;12.51;100.00
44255;BME280;29933;47.226;15.734;2022-10-31T01:35:44;96731.75;;;12.44;100.00
44255;BME280;29933;47.226;15.734;2022-10-31T01:38:09;96743.06;;;12.46;100.00
44255;BME280;29933;47.226;15.734;2022-10-31T01:40:35;96737.59;;;12.46;100.00
44255;BME280;29933;47.226;15.734;2022-10-31T01:43:01;96736.84;;;12.42;100.00
44255;BME280;29933;47.226;15.734;2022-10-31T01:45:26;96738.75;;;12.41;100.00
44255;BME280;29933;47.226;15.734;2022-10-31T01:47:52;96734.88;;;12.35;100.00
44255;BME280;29933;47.226;15.734;2022-10-31T01:50:32;96729.81;;;12.34;100.00
44255;BME280;29933;47.226;15.734;2022-10-31T01:52:59;96736.06;;;12.30;100.00
44255;BME280;29933;47.226;15.734;2022-10-31T01:55:28;96733.34;;;12.30;100.00
44255;BME280;29933;47.226;15.734;2022-10-31T01:57:59;96731.00;;;12.25;100.00
44255;BME280;29933;47.226;15.734;2022-10-31T02:00:27;96731.78;;;12.26;100.00
44255;BME280;29933;47.226;15.734;2022-10-31T02:02:53;96723.59;;;12.26;100.00
44255;BME280;29933;47.226;15.734;2022-10-31T02:05:26;96727.09;;;12.30;100.00
44255;BME280;29933;47.226;15.734;2022-10-31T02:10:37;96723.22;;;12.31;100.00
44255;BME280;29933;47.226;15.734;2022-10-31T02:13:05;96722.44;;;12.30;100.00
44255;BME280;29933;47.226;15.734;2022-10-31T02:15:32;96719.31;;;12.36;100.00
44255;BME280;29933;47.226;15.734;2022-10-31T02:17:58;96716.22;;;12.34;100.00
44255;BME280;29933;47.226;15.734;2022-10-31T02:20:26;96714.28;;;12.30;100.00
44255;BME280;29933;47.226;15.734;2022-10-31T02:33:30;96707.66;;;12.10;100.00
44255;BME280;29933;47.226;15.734;2022-10-31T02:36:06;96710.00;;;12.08;100.00
44255;BME280;29933;47.226;15.734;2022-10-31T02:38:49;96701.44;;;12.06;100.00
44255;BME280;29933;47.226;15.734;2022-10-31T02:44:00;96700.66;;;12.16;100.00
44255;BME280;29933;47.226;15.734;2022-10-31T02:46:45;96703.38;;;12.12;100.00
44255;BME280;29933;47.226;15.734;2022-10-31T02:51:44;96710.75;;;12.30;100.00
44255;BME280;29933;47.226;15.734;2022-10-31T02:54:23;96710.00;;;12.29;100.00
44255;BME280;29933;47.226;15.734;2022-10-31T02:56:49;96713.88;;;12.28;100.00
44255;BME280;29933;47.226;15.734;2022-10-31T02:59:17;96707.66;;;12.17;100.00
44255;BME280;29933;47.226;15.734;2022-10-31T03:02:16;96712.31;;;12.09;100.00
44255;BME280;29933;47.226;15.734;2022-10-31T03:15:51;96710.00;;;12.01;100.00
44255;BME280;29933;47.226;15.734;2022-10-31T03:18:28;96717.00;;;12.02;100.00
44255;BME280;29933;47.226;15.734;2022-10-31T03:21:05;96712.72;;;12.01;100.00
44255;BME280;29933;47.226;15.734;2022-10-31T03:23:34;96719.66;;;11.94;100.00
44255;BME280;29933;47.226;15.734;2022-10-31T03:26:01;96716.94;;;11.87;100.00
44255;BME280;29933;47.226;15.734;2022-10-31T03:28:34;96719.25;;;11.85;100.00
44255;BME280;29933;47.226;15.734;2022-10-31T03:31:01;96718.47;;;11.81;100.00
44255;BME280;29933;47.226;15.734;2022-10-31T03:33:29;96711.09;;;11.89;100.00
44255;BME280;29933;47.226;15.734;2022-10-31T03:35:58;96722.78;;;11.89;100.00
44255;BME280;29933;47.226;15.734;2022-10-31T03:38:25;96716.94;;;11.91;100.00
44255;BME280;29933;47.226;15.734;2022-10-31T03:40:52;96718.50;;;11.92;100.00
44255;BME280;29933;47.226;15.734;2022-10-31T03:43:24;96720.81;;;11.86;100.00
44255;BME280;29933;47.226;15.734;2022-10-31T03:45:52;96715.75;;;11.81;100.00
44255;BME280;29933;47.226;15.734;2022-10-31T03:48:18;96716.91;;;11.76;100.00
44255;BME280;29933;47.226;15.734;2022-10-31T03:53:30;96718.88;;;11.90;100.00
44255;BME280;29933;47.226;15.734;2022-10-31T03:56:11;96720.06;;;11.96;100.00
44255;BME280;29933;47.226;15.734;2022-10-31T03:58:45;96720.81;;;11.93;100.00
44255;BME280;29933;47.226;15.734;2022-10-31T04:01:15;96729.00;;;11.93;100.00
44255;BME280;29933;47.226;15.734;2022-10-31T04:03:42;96723.59;;;12.01;100.00
44255;BME280;29933;47.226;15.734;2022-10-31T04:06:09;96723.22;;;12.09;100.00
44255;BME280;29933;47.226;15.734;2022-10-31T04:08:40;96722.81;;;12.11;100.00
44255;BME280;29933;47.226;15.734;2022-10-31T04:11:08;96717.78;;;12.09;100.00
44255;BME280;29933;47.226;15.734;2022-10-31T04:13:35;96730.22;;;12.03;100.00
44255;BME280;29933;47.226;15.734;2022-10-31T04:16:03;96726.31;;;12.04;100.00
44255;BME280;29933;47.226;15.734;2022-10-31T04:18:29;96732.53;;;12.05;100.00
44255;BME280;29933;47.226;15.734;2022-10-31T04:21:06;96729.03;;;12.01;100.00
44255;BME280;29933;47.226;15.734;2022-10-31T04:23:33;96724.75;;;11.99;100.00
44255;BME280;29933;47.226;15.734;2022-10-31T04:25:59;96722.81;;;12.07;100.00
44255;BME280;29933;47.226;15.734;2022-10-31T04:28:25;96722.41;;;12.09;100.00
44255;BME280;29933;47.226;15.734;2022-10-31T04:30:51;96729.44;;;12.10;100.00
44255;BME280;29933;47.226;15.734;2022-10-31T04:33:17;96728.66;;;12.06;100.00
44255;BME280;29933;47.226;15.734;2022-10-31T04:35:43;96727.88;;;12.02;100.00
44255;BME280;29933;47.226;15.734;2022-10-31T04:38:09;96725.09;;;11.91;100.00
44255;BME280;29933;47.226;15.734;2022-10-31T04:40:35;96725.13;;;11.94;100.00
44255;BME280;29933;47.226;15.734;2022-10-31T04:43:00;96722.81;;;12.04;100.00
44255;BME280;29933;47.226;15.734;2022-10-31T04:45:26;96723.59;;;12.08;100.00
44255;BME280;29933;47.226;15.734;2022-10-31T04:47:52;96724.75;;;12.03;100.00
44255;BME280;29933;47.226;15.734;2022-10-31T04:50:18;96719.31;;;11.99;100.00
44255;BME280;29933;47.226;15.734;2022-10-31T04:52:45;96723.94;;;11.95;100.00
44255;BME280;29933;47.226;15.734;2022-10-31T04:55:11;96729.41;;;11.95;100.00
44255;BME280;29933;47.226;15.734;2022-10-31T04:57:44;96730.16;;;11.92;100.00
44255;BME280;29933;47.226;15.734;2022-10-31T05:00:12;96730.56;;;11.94;100.00
44255;BME280;29933;47.226;15.734;2022-10-31T05:02:45;96729.78;;;11.87;100.00
44255;BME280;29933;47.226;15.734;2022-10-31T05:05:12;96732.09;;;11.81;100.00
44255;BME280;29933;47.226;15.734;2022-10-31T05:07:42;96730.13;;;11.85;100.00
44255;BME280;29933;47.226;15.734;2022-10-31T05:10:10;96737.91;;;11.90;100.00
44255;BME280;29933;47.226;15.734;2022-10-31T05:12:36;96736.38;;;11.86;100.00
44255;BME280;29933;47.226;15.734;2022-10-31T05:15:03;96734.03;;;11.77;100.00
44255;BME280;29933;47.226;15.734;2022-10-31T05:17:30;96732.03;;;11.70;100.00
44255;BME280;29933;47.226;15.734;2022-10-31T05:19:55;96732.44;;;11.69;100.00
44255;BME280;29933;47.226;15.734;2022-10-31T05:22:21;96736.31;;;11.64;100.00
44255;BME280;29933;47.226;15.734;2022-10-31T05:24:47;96728.50;;;11.55;100.00
44255;BME280;29933;47.226;15.734;2022-10-31T05:27:12;96735.13;;;11.50;100.00
44255;BME280;29933;47.226;15.734;2022-10-31T05:29:38;96737.81;;;11.43;100.00
44255;BME280;29933;47.226;15.734;2022-10-31T05:32:04;96739.00;;;11.49;100.00
44255;BME280;29933;47.226;15.734;2022-10-31T05:34:30;96734.75;;;11.66;100.00
44255;BME280;29933;47.226;15.734;2022-10-31T05:36:57;96734.78;;;11.74;100.00
44255;BME280;29933;47.226;15.734;2022-10-31T05:39:22;96739.09;;;11.82;100.00
44255;BME280;29933;47.226;15.734;2022-10-31T05:41:48;96737.91;;;11.79;100.00
44255;BME280;29933;47.226;15.734;2022-10-31T05:44:15;96748.03;;;11.75;100.00
44255;BME280;29933;47.226;15.734;2022-10-31T05:47:04;96750.31;;;11.66;100.00
44255;BME280;29933;47.226;15.734;2022-10-31T05:49:33;96748.72;;;11.61;100.00
44255;BME280;29933;47.226;15.734;2022-10-31T05:52:19;96751.06;;;11.52;100.00
44255;BME280;29933;47.226;15.734;2022-10-31T05:54:48;96744.75;;;11.33;100.00
44255;BME280;29933;47.226;15.734;2022-10-31T05:57:16;96744.72;;;11.26;100.00
44255;BME280;29933;47.226;15.734;2022-10-31T05:59:42;96755.59;;;11.26;100.00
44255;BME280;29933;47.226;15.734;2022-10-31T06:02:08;96755.59;;;11.26;100.00
44255;BME280;29933;47.226;15.734;2022-10-31T06:04:33;96757.97;;;11.28;100.00
44255;BME280;29933;47.226;15.734;2022-10-31T06:06:59;96758.72;;;11.28;100.00
44255;BME280;29933;47.226;15.734;2022-10-31T06:09:25;96761.03;;;11.26;100.00
44255;BME280;29933;47.226;15.734;2022-10-31T06:11:50;96761.81;;;11.23;100.00
44255;BME280;29933;47.226;15.734;2022-10-31T06:14:16;96771.88;;;11.19;100.00
44255;BME280;29933;47.226;15.734;2022-10-31T06:16:42;96777.31;;;11.19;100.00
44255;BME280;29933;47.226;15.734;2022-10-31T06:19:08;96770.28;;;11.07;100.00
44255;BME280;29933;47.226;15.734;2022-10-31T06:21:33;96772.91;;;10.96;100.00
44255;BME280;29933;47.226;15.734;2022-10-31T06:23:59;96769.41;;;10.92;100.00
44255;BME280;29933;47.226;15.734;2022-10-31T06:26:25;96773.66;;;10.90;100.00
44255;BME280;29933;47.226;15.734;2022-10-31T06:28:50;96772.13;;;10.92;100.00
44255;BME280;29933;47.226;15.734;2022-10-31T06:31:16;96776.72;;;10.84;100.00
44255;BME280;29933;47.226;15.734;2022-10-31T06:33:42;96778.66;;;10.80;100.00
44255;BME280;29933;47.226;15.734;2022-10-31T06:36:08;96783.66;;;10.75;100.00
44255;BME280;29933;47.226;15.734;2022-10-31T06:38:34;96778.97;;;10.72;100.00
44255;BME280;29933;47.226;15.734;2022-10-31T06:41:04;96779.31;;;10.66;100.00
44255;BME280;29933;47.226;15.734;2022-10-31T06:43:30;96786.28;;;10.64;100.00
44255;BME280;29933;47.226;15.734;2022-10-31T06:45:56;96783.88;;;10.55;100.00
44255;BME280;29933;47.226;15.734;2022-10-31T06:48:23;96782.28;;;10.47;100.00
44255;BME280;29933;47.226;15.734;2022-10-31T06:50:49;96790.78;;;10.42;100.00
44255;BME280;29933;47.226;15.734;2022-10-31T06:53:15;96796.19;;;10.38;100.00
44255;BME280;29933;47.226;15.734;2022-10-31T06:55:41;96799.97;;;10.33;100.00
44255;BME280;29933;47.226;15.734;2022-10-31T06:58:08;96799.19;;;10.29;100.00
44255;BME280;29933;47.226;15.734;2022-10-31T07:00:34;96802.22;;;10.24;100.00
44255;BME280;29933;47.226;15.734;2022-10-31T07:03:03;96799.41;;;10.13;100.00
44255;BME280;29933;47.226;15.734;2022-10-31T07:05:30;96806.28;;;10.03;100.00
44255;BME280;29933;47.226;15.734;2022-10-31T07:07:58;96821.75;;;9.99;100.00
44255;BME280;29933;47.226;15.734;2022-10-31T07:10:25;96826.34;;;9.95;100.00
44255;BME280;29933;47.226;15.734;2022-10-31T07:12:55;96824.38;;;9.92;100.00
44255;BME280;29933;47.226;15.734;2022-10-31T07:15:22;96827.81;;;9.89;100.00
44255;BME280;29933;47.226;15.734;2022-10-31T07:17:48;96822.34;;;9.82;100.00
44255;BME280;29933;47.226;15.734;2022-10-31T07:20:14;96835.50;;;9.80;100.00
44255;BME280;29933;47.226;15.734;2022-10-31T07:22:40;96832.34;;;9.78;100.00
44255;BME280;29933;47.226;15.734;2022-10-31T07:25:06;96837.78;;;9.78;100.00
44255;BME280;29933;47.226;15.734;2022-10-31T07:27:36;96833.88;;;9.75;100.00
44255;BME280;29933;47.226;15.734;2022-10-31T07:30:02;96832.81;;;9.83;100.00
44255;BME280;29933;47.226;15.734;2022-10-31T07:32:40;96836.44;;;9.95;100.00
44255;BME280;29933;47.226;15.734;2022-10-31T07:35:08;96849.31;;;10.05;100.00
44255;BME280;29933;47.226;15.734;2022-10-31T07:37:33;96845.00;;;10.00;100.00
44255;BME280;29933;47.226;15.734;2022-10-31T07:39:59;96850.41;;;10.34;100.00
44255;BME280;29933;47.226;15.734;2022-10-31T07:42:25;96846.66;;;10.46;100.00
44255;BME280;29933;47.226;15.734;2022-10-31T07:44:51;96845.69;;;10.65;100.00
44255;BME280;29933;47.226;15.734;2022-10-31T07:47:16;96842.50;;;11.08;100.00
44255;BME280;29933;47.226;15.734;2022-10-31T07:49:42;96848.09;;;11.33;100.00
44255;BME280;29933;47.226;15.734;2022-10-31T07:52:08;96844.63;;;11.40;100.00
44255;BME280;29933;47.226;15.734;2022-10-31T07:54:33;96848.81;;;11.23;100.00
44255;BME280;29933;47.226;15.734;2022-10-31T07:56:59;96852.97;;;11.06;100.00
44255;BME280;29933;47.226;15.734;2022-10-31T07:59:25;96855.59;;;10.95;100.00
44255;BME280;29933;47.226;15.734;2022-10-31T08:01:52;96857.94;;;10.93;100.00
44255;BME280;29933;47.226;15.734;2022-10-31T08:04:18;96859.88;;;10.96;100.00
44255;BME280;29933;47.226;15.734;2022-10-31T08:06:44;96858.72;;;10.97;100.00
44255;BME280;29933;47.226;15.734;2022-10-31T08:09:10;96854.09;;;11.01;100.00
44255;BME280;29933;47.226;15.734;2022-10-31T08:11:36;96856.44;;;11.03;100.00
44255;BME280;29933;47.226;15.734;2022-10-31T08:14:01;96854.47;;;11.00;100.00
44255;BME280;29933;47.226;15.734;2022-10-31T08:16:27;96858.00;;;11.04;100.00
44255;BME280;29933;47.226;15.734;2022-10-31T08:18:53;96859.16;;;11.03;100.00
44255;BME280;29933;47.226;15.734;2022-10-31T08:21:21;96852.97;;;11.06;100.00
44255;BME280;29933;47.226;15.734;2022-10-31T08:23:47;96851.78;;;11.04;100.00
44255;BME280;29933;47.226;15.734;2022-10-31T08:26:12;96865.38;;;11.04;100.00
44255;BME280;29933;47.226;15.734;2022-10-31T08:28:38;96852.56;;;11.04;100.00
44255;BME280;29933;47.226;15.734;2022-10-31T08:31:04;96856.06;;;11.05;100.00
44255;BME280;29933;47.226;15.734;2022-10-31T08:33:31;96850.66;;;11.08;100.00
44255;BME280;29933;47.226;15.734;2022-10-31T08:36:00;96851.47;;;11.16;100.00
44255;BME280;29933;47.226;15.734;2022-10-31T08:38:25;96843.38;;;11.23;100.00
44255;BME280;29933;47.226;15.734;2022-10-31T08:40:51;96844.59;;;11.33;100.00
44255;BME280;29933;47.226;15.734;2022-10-31T08:43:17;96844.28;;;11.49;100.00
44255;BME280;29933;47.226;15.734;2022-10-31T08:45:44;96839.34;;;11.69;100.00
44255;BME280;29933;47.226;15.734;2022-10-31T08:48:12;96841.34;;;11.90;100.00
44255;BME280;29933;47.226;15.734;2022-10-31T08:50:38;96840.28;;;12.09;100.00
44255;BME280;29933;47.226;15.734;2022-10-31T08:53:10;96843.06;;;12.35;100.00
44255;BME280;29933;47.226;15.734;2022-10-31T08:55:38;96842.69;;;12.61;100.00
44255;BME280;29933;47.226;15.734;2022-10-31T08:58:05;96845.03;;;12.81;100.00
44255;BME280;29933;47.226;15.734;2022-10-31T09:00:33;96840.75;;;13.02;100.00
44255;BME280;29933;47.226;15.734;2022-10-31T09:03:06;96848.91;;;13.12;100.00
44255;BME280;29933;47.226;15.734;2022-10-31T09:05:34;96840.72;;;13.38;100.00
44255;BME280;29933;47.226;15.734;2022-10-31T09:08:01;96846.50;;;13.54;100.00
44255;BME280;29933;47.226;15.734;2022-10-31T09:10:28;96843.78;;;13.62;100.00
44255;BME280;29933;47.226;15.734;2022-10-31T09:12:58;96846.06;;;13.70;100.00
44255;BME280;29933;47.226;15.734;2022-10-31T09:15:25;96846.00;;;13.88;100.00
44255;BME280;29933;47.226;15.734;2022-10-31T09:17:51;96853.72;;;14.04;100.00
44255;BME280;29933;47.226;15.734;2022-10-31T09:20:16;96854.03;;;14.17;100.00
44255;BME280;29933;47.226;15.734;2022-10-31T09:22:42;96849.69;;;14.27;100.00
44255;BME280;29933;47.226;15.734;2022-10-31T09:25:08;96844.53;;;14.40;100.00
44255;BME280;29933;47.226;15.734;2022-10-31T09:27:34;96848.41;;;14.46;100.00
44255;BME280;29933;47.226;15.734;2022-10-31T09:30:00;96847.50;;;14.64;100.00
44255;BME280;29933;47.226;15.734;2022-10-31T09:32:26;96848.19;;;14.82;100.00
44255;BME280;29933;47.226;15.734;2022-10-31T09:34:52;96843.38;;;14.94;100.00
44255;BME280;29933;47.226;15.734;2022-10-31T09:37:17;96845.25;;;15.08;100.00
44255;BME280;29933;47.226;15.734;2022-10-31T09:39:43;96846.63;;;15.27;100.00
44255;BME280;29933;47.226;15.734;2022-10-31T09:50:53;96836.75;;;15.71;100.00
44255;BME280;29933;47.226;15.734;2022-10-31T09:53:25;96837.00;;;15.88;100.00
44255;BME280;29933;47.226;15.734;2022-10-31T09:55:53;96840.72;;;16.01;100.00
44255;BME280;29933;47.226;15.734;2022-10-31T09:58:23;96835.88;;;16.12;100.00
44255;BME280;29933;47.226;15.734;2022-10-31T10:00:50;96829.78;;;16.28;100.00
44255;BME280;29933;47.226;15.734;2022-10-31T10:08:31;96828.06;;;16.65;100.00
44255;BME280;29933;47.226;15.734;2022-10-31T10:16:09;96821.94;;;16.81;100.00
44255;BME280;29933;47.226;15.734;2022-10-31T10:30:17;96821.38;;;17.18;100.00
44255;BME280;29933;47.226;15.734;2022-10-31T10:32:57;96816.03;;;17.30;100.00
44255;BME280;29933;47.226;15.734;2022-10-31T10:35:27;96812.94;;;17.48;100.00
44255;BME280;29933;47.226;15.734;2022-10-31T10:38:12;96815.84;;;17.61;100.00
44255;BME280;29933;47.226;15.734;2022-10-31T10:40:40;96816.84;;;17.71;100.00
44255;BME280;29933;47.226;15.734;2022-10-31T10:43:35;96809.16;;;17.83;100.00
44255;BME280;29933;47.226;15.734;2022-10-31T10:51:44;96802.84;;;18.22;100.00
44255;BME280;29933;47.226;15.734;2022-10-31T10:59:48;96797.00;;;18.53;100.00
44255;BME280;29933;47.226;15.734;2022-10-31T11:02:25;96793.47;;;18.69;100.00
44255;BME280;29933;47.226;15.734;2022-10-31T11:04:56;96797.94;;;18.80;100.00
44255;BME280;29933;47.226;15.734;2022-10-31T11:07:22;96794.78;;;18.81;100.00
44255;BME280;29933;47.226;15.734;2022-10-31T11:09:48;96792.63;;;18.89;100.00
44255;BME280;29933;47.226;15.734;2022-10-31T11:12:29;96788.50;;;18.97;100.00
44255;BME280;29933;47.226;15.734;2022-10-31T11:14:59;96784.81;;;19.04;100.00
44255;BME280;29933;47.226;15.734;2022-10-31T11:17:48;96783.69;;;19.01;100.00
44255;BME280;29933;47.226;15.734;2022-10-31T11:22:44;96771.25;;;19.26;100.00
44255;BME280;29933;47.226;15.734;2022-10-31T11:25:24;96773.69;;;19.37;100.00
44255;BME280;29933;47.226;15.734;2022-10-31T11:28:02;96766.97;;;19.38;100.00
44255;BME280;29933;47.226;15.734;2022-10-31T11:30:28;96768.53;;;19.39;100.00
44255;BME280;29933;47.226;15.734;2022-10-31T11:32:54;96767.88;;;19.35;100.00
44255;BME280;29933;47.226;15.734;2022-10-31T11:35:21;96767.69;;;19.55;100.00
44255;BME280;29933;47.226;15.734;2022-10-31T11:37:48;96765.59;;;19.59;100.00
44255;BME280;29933;47.226;15.734;2022-10-31T11:40:20;96751.50;;;19.57;100.00
44255;BME280;29933;47.226;15.734;2022-10-31T11:42:46;96754.59;;;19.59;100.00
44255;BME280;29933;47.226;15.734;2022-10-31T11:45:17;96755.03;;;19.57;100.00
44255;BME280;29933;47.226;15.734;2022-10-31T11:47:47;96758.44;;;19.62;100.00
44255;BME280;29933;47.226;15.734;2022-10-31T11:50:19;96754.38;;;19.66;100.00
44255;BME280;29933;47.226;15.734;2022-10-31T11:52:46;96751.94;;;19.68;100.00
44255;BME280;29933;47.226;15.734;2022-10-31T11:57:46;96750.78;;;19.82;100.00
44255;BME280;29933;47.226;15.734;2022-10-31T12:00:25;96746.81;;;19.83;100.00
44255;BME280;29933;47.226;15.734;2022-10-31T12:03:06;96746.06;;;19.83;100.00
44255;BME280;29933;47.226;15.734;2022-10-31T12:05:35;96740.09;;;19.84;100.00
44255;BME280;29933;47.226;15.734;2022-10-31T12:08:03;96737.78;;;19.96;100.00
44255;BME280;29933;47.226;15.734;2022-10-31T12:13:40;96728.97;;;20.14;100.00
44255;BME280;29933;47.226;15.734;2022-10-31T12:17:03;96728.75;;;20.21;100.00
44255;BME280;29933;47.226;15.734;2022-10-31T12:24:59;96734.16;;;20.12;100.00
44255;BME280;29933;47.226;15.734;2022-10-31T12:27:51;96727.56;;;19.96;100.00
44255;BME280;29933;47.226;15.734;2022-10-31T12:30:20;96725.66;;;19.93;100.00
44255;BME280;29933;47.226;15.734;2022-10-31T12:36:01;96722.44;;;19.82;100.00
44255;BME280;29933;47.226;15.734;2022-10-31T12:51:53;96719.88;;;19.62;100.00
44255;BME280;29933;47.226;15.734;2022-10-31T12:57:12;96711.06;;;19.54;100.00
44255;BME280;29933;47.226;15.734;2022-10-31T12:59:49;96717.53;;;19.47;100.00
44255;BME280;29933;47.226;15.734;2022-10-31T13:02:39;96717.66;;;19.44;100.00
44255;BME280;29933;47.226;15.734;2022-10-31T13:05:39;96712.34;;;19.36;100.00
44255;BME280;29933;47.226;15.734;2022-10-31T13:11:15;96708.94;;;19.32;100.00
44255;BME280;29933;47.226;15.734;2022-10-31T13:14:18;96711.53;;;19.23;100.00
44255;BME280;29933;47.226;15.734;2022-10-31T13:16:47;96711.06;;;19.12;100.00
44255;BME280;29933;47.226;15.734;2022-10-31T13:19:17;96710.97;;;19.15;100.00
44255;BME280;29933;47.226;15.734;2022-10-31T13:22:11;96704.66;;;19.15;100.00
44255;BME280;29933;47.226;15.734;2022-10-31T13:25:02;96707.41;;;19.15;100.00
44255;BME280;29933;47.226;15.734;2022-10-31T13:27:48;96705.34;;;19.19;100.00
44255;BME280;29933;47.226;15.734;2022-10-31T13:35:22;96695.00;;;19.23;100.00
44255;BME280;29933;47.226;15.734;2022-10-31T13:38:03;96703.72;;;19.21;100.00
44255;BME280;29933;47.226;15.734;2022-10-31T13:45:55;96689.22;;;19.04;100.00
44255;BME280;29933;47.226;15.734;2022-10-31T13:51:02;96690.19;;;18.98;100.00
44255;BME280;29933;47.226;15.734;2022-10-31T13:53:38;96695.09;;;18.90;100.00
44255;BME280;29933;47.226;15.734;2022-10-31T13:56:14;96688.59;;;18.84;100.00
44255;BME280;29933;47.226;15.734;2022-10-31T13:58:54;96690.06;;;18.72;100.00
44255;BME280;29933;47.226;15.734;2022-10-31T14:01:22;96684.56;;;18.72;100.00
44255;BME280;29933;47.226;15.734;2022-10-31T14:04:18;96691.88;;;18.62;100.00
44255;BME280;29933;47.226;15.734;2022-10-31T14:07:05;96686.31;;;18.49;100.00
44255;BME280;29933;47.226;15.734;2022-10-31T14:09:34;96687.91;;;18.34;100.00
44255;BME280;29933;47.226;15.734;2022-10-31T14:12:14;96695.44;;;18.29;100.00
44255;BME280;29933;47.226;15.734;2022-10-31T14:14:49;96700.34;;;18.22;100.00
44255;BME280;29933;47.226;15.734;2022-10-31T14:20:34;96699.38;;;18.12;100.00
44255;BME280;29933;47.226;15.734;2022-10-31T14:25:54;96695.00;;;17.98;100.00
44255;BME280;29933;47.226;15.734;2022-10-31T14:28:32;96697.56;;;17.89;100.00
44255;BME280;29933;47.226;15.734;2022-10-31T14:30:59;96700.16;;;17.76;100.00
44255;BME280;29933;47.226;15.734;2022-10-31T14:33:27;96706.59;;;17.69;100.00
44255;BME280;29933;47.226;15.734;2022-10-31T14:36:10;96704.88;;;17.59;100.00
44255;BME280;29933;47.226;15.734;2022-10-31T14:38:56;96701.91;;;17.49;100.00
44255;BME280;29933;47.226;15.734;2022-10-31T14:50:02;96708.91;;;16.94;100.00
44255;BME280;29933;47.226;15.734;2022-10-31T14:52:31;96712.84;;;16.93;100.00
44255;BME280;29933;47.226;15.734;2022-10-31T14:54:58;96702.31;;;16.88;100.00
44255;BME280;29933;47.226;15.734;2022-10-31T14:57:31;96707.56;;;16.78;100.00
44255;BME280;29933;47.226;15.734;2022-10-31T15:00:01;96703.75;;;16.72;100.00
44255;BME280;29933;47.226;15.734;2022-10-31T15:02:45;96700.00;;;16.62;100.00
44255;BME280;29933;47.226;15.734;2022-10-31T15:05:13;96702.22;;;16.47;100.00
44255;BME280;29933;47.226;15.734;2022-10-31T15:07:51;96702.53;;;16.29;100.00
44255;BME280;29933;47.226;15.734;2022-10-31T15:10:23;96699.25;;;16.14;100.00
44255;BME280;29933;47.226;15.734;2022-10-31T15:12:50;96701.53;;;15.92;100.00